createdAt,value
2023-02-14T00:00:57.193Z,7.40
2023-02-14T00:03:28.264Z,7.60
2023-02-14T00:06:07.087Z,7.30
2023-02-14T00:08:40.953Z,7.70
2023-02-14T00:11:13.265Z,7.40
2023-02-14T00:14:04.165Z,7.30
2023-02-14T00:16:35.041Z,7.40
2023-02-14T00:19:06.023Z,7.30
2023-02-14T00:21:38.674Z,7.20
2023-02-14T00:24:22.094Z,7.40
2023-02-14T00:26:53.564Z,7.40
2023-02-14T00:29:31.552Z,7.40
2023-02-14T00:32:02.999Z,7.50
2023-02-14T00:34:36.491Z,7.20
2023-02-14T00:37:07.411Z,7.60
2023-02-14T00:39:38.889Z,7.30
2023-02-14T00:42:09.859Z,7.30
2023-02-14T00:44:41.127Z,7.40
2023-02-14T00:47:12.095Z,7.60
2023-02-14T00:49:42.966Z,7.40
2023-02-14T00:52:14.641Z,7.10
2023-02-14T00:54:45.586Z,7.00
2023-02-14T00:57:16.499Z,7.10
2023-02-14T00:59:47.382Z,6.80
2023-02-14T01:02:18.307Z,6.80
2023-02-14T01:04:49.229Z,6.90
2023-02-14T01:07:22.273Z,7.10
2023-02-14T01:09:53.149Z,7.20
2023-02-14T01:12:24.101Z,7.10
2023-02-14T01:14:55.764Z,7.00
2023-02-14T01:17:27.393Z,7.00
2023-02-14T01:19:58.297Z,7.00
2023-02-14T01:22:29.170Z,7.10
2023-02-14T01:25:00.098Z,7.20
2023-02-14T01:27:31.269Z,7.00
2023-02-14T01:30:02.297Z,6.80
2023-02-14T01:32:33.768Z,6.70
2023-02-14T01:35:05.022Z,6.80
2023-02-14T01:37:36.257Z,6.70
2023-02-14T01:40:10.036Z,6.60
2023-02-14T01:42:41.042Z,6.60
2023-02-14T01:45:22.241Z,6.70
2023-02-14T01:47:56.375Z,6.90
2023-02-14T01:50:33.401Z,6.60
2023-02-14T01:53:13.841Z,6.60
2023-02-14T01:55:52.148Z,6.80
2023-02-14T01:58:27.120Z,6.50
2023-02-14T02:00:59.022Z,6.90
2023-02-14T02:03:54.932Z,6.90
2023-02-14T02:06:39.089Z,6.40
2023-02-14T02:09:22.410Z,6.60
2023-02-14T02:11:53.422Z,6.30
2023-02-14T02:14:24.529Z,6.80
2023-02-14T02:17:47.483Z,6.60
2023-02-14T02:21:23.196Z,6.80
2023-02-14T02:24:31.651Z,6.80
2023-02-14T02:27:35.603Z,7.00
2023-02-14T02:30:30.343Z,7.10
2023-02-14T02:33:55.557Z,7.00
2023-02-14T02:37:10.678Z,7.00
2023-02-14T02:39:59.537Z,6.90
2023-02-14T02:42:50.408Z,7.30
2023-02-14T02:45:59.509Z,7.10
2023-02-14T02:49:01.519Z,7.20
2023-02-14T02:52:07.659Z,7.10
2023-02-14T02:54:44.618Z,6.90
2023-02-14T02:57:24.357Z,6.90
2023-02-14T02:59:57.671Z,7.20
2023-02-14T03:02:59.754Z,7.10
2023-02-14T03:05:31.101Z,7.10
2023-02-14T03:08:03.501Z,6.70
2023-02-14T03:10:38.356Z,6.80
2023-02-14T03:13:55.955Z,6.60
2023-02-14T03:16:55.423Z,7.00
2023-02-14T03:20:15.976Z,6.70
2023-02-14T03:23:09.455Z,6.40
2023-02-14T03:26:07.463Z,6.70
2023-02-14T03:29:17.497Z,6.60
2023-02-14T03:32:00.932Z,6.40
2023-02-14T03:35:02.020Z,6.30
2023-02-14T03:37:55.930Z,6.40
2023-02-14T03:40:34.298Z,6.10
2023-02-14T03:43:14.629Z,6.00
2023-02-14T03:45:52.063Z,6.00
2023-02-14T03:48:25.772Z,6.00
2023-02-14T03:50:59.808Z,5.90
2023-02-14T03:53:36.348Z,6.00
2023-02-14T03:56:13.188Z,6.00
2023-02-14T03:58:49.161Z,6.20
2023-02-14T04:01:32.549Z,6.00
2023-02-14T04:04:06.016Z,6.20
2023-02-14T04:06:36.918Z,6.50
2023-02-14T04:09:07.871Z,6.10
2023-02-14T04:11:39.041Z,6.10
2023-02-14T04:14:10.022Z,6.10
2023-02-14T04:16:59.144Z,6.10
2023-02-14T04:19:30.068Z,6.20
2023-02-14T04:22:00.927Z,6.30
2023-02-14T04:24:31.820Z,6.20
2023-02-14T04:27:11.867Z,6.30
2023-02-14T04:29:46.810Z,6.30
2023-02-14T04:32:22.116Z,6.40
2023-02-14T04:34:53.516Z,6.50
2023-02-14T04:37:24.533Z,6.40
2023-02-14T04:39:55.397Z,6.30
2023-02-14T04:42:26.330Z,6.50
2023-02-14T04:44:57.251Z,6.20
2023-02-14T04:47:28.191Z,6.60
2023-02-14T04:49:59.170Z,6.50
2023-02-14T04:52:30.053Z,6.70
2023-02-14T04:55:01.047Z,6.70
2023-02-14T04:57:32.395Z,6.60
2023-02-14T05:00:05.320Z,6.50
2023-02-14T05:02:37.185Z,6.40
2023-02-14T05:05:08.413Z,6.70
2023-02-14T05:07:39.370Z,6.60
2023-02-14T05:10:10.965Z,6.90
2023-02-14T05:12:42.125Z,6.80
2023-02-14T05:15:13.038Z,6.80
2023-02-14T05:17:43.905Z,6.70
2023-02-14T05:20:14.913Z,6.60
2023-02-14T05:22:45.888Z,6.90
2023-02-14T05:25:16.811Z,6.50
2023-02-14T05:27:47.662Z,6.50
2023-02-14T05:30:18.847Z,6.50
2023-02-14T05:32:49.769Z,6.30
2023-02-14T05:35:20.657Z,6.40
2023-02-14T05:37:51.538Z,6.40
2023-02-14T05:42:54.557Z,6.50
2023-02-14T05:45:25.958Z,6.40
2023-02-14T05:47:56.861Z,5.90
2023-02-14T05:50:28.471Z,6.20
2023-02-14T05:52:59.457Z,6.10
2023-02-14T05:55:30.526Z,6.20
2023-02-14T05:58:01.479Z,6.10
2023-02-14T06:00:32.396Z,5.90
2023-02-14T06:03:03.733Z,6.10
2023-02-14T06:05:34.680Z,6.10
2023-02-14T06:08:05.658Z,5.80
2023-02-14T06:10:36.528Z,6.30
2023-02-14T06:13:10.713Z,5.90
2023-02-14T06:15:41.577Z,6.10
2023-02-14T06:18:12.561Z,6.40
2023-02-14T06:20:43.427Z,6.20
2023-02-14T06:23:14.309Z,6.00
2023-02-14T06:25:45.155Z,6.10
2023-02-14T06:28:16.057Z,6.10
2023-02-14T06:30:47.754Z,6.10
2023-02-14T06:33:18.721Z,6.30
2023-02-14T06:35:49.616Z,6.20
2023-02-14T06:38:20.496Z,6.00
2023-02-14T06:40:51.353Z,6.10
2023-02-14T06:43:22.246Z,6.30
2023-02-14T06:45:53.247Z,6.40
2023-02-14T06:48:24.274Z,6.10
2023-02-14T06:50:55.428Z,6.10
2023-02-14T06:53:26.473Z,6.20
2023-02-14T06:55:57.768Z,6.00
2023-02-14T06:58:28.698Z,6.30
2023-02-14T07:01:00.118Z,6.20
2023-02-14T07:03:31.334Z,6.30
2023-02-14T07:06:02.276Z,6.50
2023-02-14T07:08:33.207Z,6.40
2023-02-14T07:11:04.279Z,6.20
2023-02-14T07:13:35.136Z,6.40
2023-02-14T07:16:06.339Z,6.60
2023-02-14T07:18:37.805Z,6.50
2023-02-14T07:21:08.737Z,6.60
2023-02-14T07:23:39.830Z,6.60
2023-02-14T07:26:10.757Z,6.90
2023-02-14T07:28:44.903Z,6.90
2023-02-14T07:31:17.497Z,6.90
2023-02-14T07:33:48.439Z,7.10
2023-02-14T07:36:19.946Z,7.00
2023-02-14T07:38:50.825Z,7.00
2023-02-14T07:41:21.727Z,7.10
2023-02-14T07:43:52.631Z,7.00
2023-02-14T07:46:23.511Z,7.30
2023-02-14T07:48:54.420Z,7.40
2023-02-14T07:51:25.325Z,7.50
2023-02-14T07:53:56.236Z,7.50
2023-02-14T07:56:27.219Z,7.40
2023-02-14T07:58:58.173Z,7.60
2023-02-14T08:01:29.150Z,7.40
2023-02-14T08:04:00.119Z,7.70
2023-02-14T08:06:31.080Z,7.80
2023-02-14T08:09:02.180Z,7.90
2023-02-14T08:11:52.189Z,8.00
2023-02-14T08:14:23.686Z,8.00
2023-02-14T08:16:54.582Z,8.00
2023-02-14T08:19:25.442Z,8.20
2023-02-14T08:21:56.409Z,8.30
2023-02-14T08:24:27.683Z,8.50
2023-02-14T08:26:59.418Z,8.60
2023-02-14T08:29:30.468Z,8.90
2023-02-14T08:32:01.501Z,9.20
2023-02-14T08:34:32.441Z,9.20
2023-02-14T08:37:03.360Z,9.00
2023-02-14T08:39:34.206Z,9.10
2023-02-14T08:42:05.970Z,9.20
2023-02-14T08:44:36.899Z,9.00
2023-02-14T08:47:07.923Z,9.00
2023-02-14T08:49:38.808Z,9.10
2023-02-14T08:52:09.730Z,9.10
2023-02-14T08:54:40.629Z,9.30
2023-02-14T08:57:11.530Z,9.30
2023-02-14T08:59:42.396Z,9.20
2023-02-14T09:02:13.927Z,9.10
2023-02-14T09:04:45.492Z,9.00
2023-02-14T09:07:16.480Z,9.20
2023-02-14T09:09:47.413Z,9.40
2023-02-14T09:12:18.506Z,9.40
2023-02-14T09:14:49.459Z,9.40
2023-02-14T09:17:21.023Z,9.50
2023-02-14T09:19:52.002Z,9.40
2023-02-14T09:22:22.988Z,9.30
2023-02-14T09:24:53.850Z,9.60
2023-02-14T09:27:24.796Z,9.70
2023-02-14T09:29:55.719Z,10.00
2023-02-14T09:32:27.292Z,10.10
2023-02-14T09:34:58.204Z,9.50
2023-02-14T09:37:29.095Z,9.90
2023-02-14T09:39:59.997Z,10.10
2023-02-14T09:42:49.030Z,10.20
2023-02-14T09:45:25.165Z,10.00
2023-02-14T09:48:13.008Z,10.30
2023-02-14T09:50:52.142Z,9.80
2023-02-14T09:53:28.986Z,10.70
2023-02-14T09:56:25.529Z,10.40
2023-02-14T09:59:22.837Z,10.70
2023-02-14T10:02:19.472Z,10.30
2023-02-14T10:05:30.841Z,10.80
2023-02-14T10:08:42.937Z,10.90
2023-02-14T10:11:20.474Z,11.50
2023-02-14T10:14:12.232Z,11.60
2023-02-14T10:16:56.340Z,11.90
2023-02-14T10:19:56.645Z,11.50
2023-02-14T10:22:46.712Z,11.60
2023-02-14T10:25:26.555Z,11.80
2023-02-14T10:27:58.984Z,12.00
2023-02-14T10:30:40.048Z,12.30
2023-02-14T10:33:18.702Z,12.40
2023-02-14T10:36:04.774Z,12.40
2023-02-14T10:38:53.928Z,12.30
2023-02-14T10:41:50.524Z,12.50
2023-02-14T10:45:09.438Z,12.10
2023-02-14T10:47:59.782Z,12.90
2023-02-14T10:51:03.312Z,13.20
2023-02-14T10:53:46.721Z,13.20
2023-02-14T10:56:29.250Z,13.80
2023-02-14T10:59:14.282Z,14.10
2023-02-14T11:01:47.083Z,15.00
2023-02-14T11:04:21.345Z,15.10
2023-02-14T11:06:52.793Z,15.80
2023-02-14T11:09:23.746Z,14.70
2023-02-14T11:11:59.425Z,14.80
2023-02-14T11:14:35.892Z,15.30
2023-02-14T11:17:30.861Z,14.70
2023-02-14T11:20:23.070Z,14.70
2023-02-14T11:22:54.002Z,15.20
2023-02-14T11:25:32.805Z,14.90
2023-02-14T11:28:10.445Z,14.70
2023-02-14T11:30:45.818Z,14.90
2023-02-14T11:33:41.413Z,15.30
2023-02-14T11:36:15.064Z,15.20
2023-02-14T11:38:56.339Z,15.60
2023-02-14T11:41:27.224Z,16.00
2023-02-14T11:44:22.644Z,15.20
2023-02-14T11:47:41.482Z,15.10
2023-02-14T11:50:25.929Z,15.40
2023-02-14T11:52:57.180Z,16.10
2023-02-14T11:55:33.735Z,16.40
2023-02-14T11:58:07.552Z,16.30
2023-02-14T12:00:38.471Z,16.00
2023-02-14T12:03:19.227Z,16.00
2023-02-14T12:05:53.960Z,16.70
2023-02-14T12:08:29.662Z,16.50
2023-02-14T12:11:19.494Z,16.70
2023-02-14T12:13:56.566Z,16.80
2023-02-14T12:17:15.005Z,16.50
2023-02-14T12:20:12.487Z,16.60
2023-02-14T12:22:50.583Z,17.20
2023-02-14T12:25:27.401Z,16.70
2023-02-14T12:28:09.317Z,16.80
2023-02-14T12:30:41.508Z,16.80
2023-02-14T12:33:23.576Z,16.80
2023-02-14T12:35:55.597Z,17.10
2023-02-14T12:39:12.851Z,17.10
2023-02-14T12:42:12.191Z,17.30
2023-02-14T12:45:13.977Z,17.20
2023-02-14T12:48:17.040Z,17.80
2023-02-14T12:51:25.076Z,17.60
2023-02-14T12:54:21.530Z,18.20
2023-02-14T12:57:05.255Z,17.80
2023-02-14T13:00:17.576Z,17.80
2023-02-14T13:03:30.486Z,18.50
2023-02-14T13:06:05.350Z,18.30
2023-02-14T13:09:22.061Z,18.20
2023-02-14T13:12:31.888Z,17.90
2023-02-14T13:15:19.051Z,18.70
2023-02-14T13:18:01.531Z,18.50
2023-02-14T13:20:39.183Z,18.20
2023-02-14T13:23:56.724Z,17.50
2023-02-14T13:26:33.146Z,17.50
2023-02-14T13:29:14.263Z,18.10
2023-02-14T13:31:46.523Z,17.90
2023-02-14T13:34:34.204Z,18.30
2023-02-14T13:37:10.785Z,18.20
2023-02-14T13:39:46.300Z,19.20
2023-02-14T13:42:48.598Z,19.40
2023-02-14T13:45:49.352Z,19.60
2023-02-14T13:48:30.868Z,18.70
2023-02-14T13:51:08.347Z,18.60
2023-02-14T13:53:49.535Z,18.20
2023-02-14T13:56:21.008Z,18.60
2023-02-14T13:59:30.272Z,18.60
2023-02-14T14:02:31.771Z,18.90
2023-02-14T14:05:35.475Z,19.00
2023-02-14T14:08:21.533Z,19.50
2023-02-14T14:11:03.138Z,18.80
2023-02-14T14:13:43.134Z,18.60
2023-02-14T14:16:28.767Z,18.80
2023-02-14T14:19:30.568Z,18.40
2023-02-14T14:22:09.395Z,18.80
2023-02-14T14:24:57.678Z,19.00
2023-02-14T14:27:41.430Z,18.70
2023-02-14T14:30:39.953Z,18.30
2023-02-14T14:33:33.455Z,18.40
2023-02-14T14:36:10.277Z,17.80
2023-02-14T14:38:51.214Z,18.50
2023-02-14T14:41:29.738Z,17.70
2023-02-14T14:44:00.973Z,17.70
2023-02-14T14:46:32.038Z,17.40
2023-02-14T14:49:04.484Z,17.20
2023-02-14T14:51:36.223Z,17.30
2023-02-14T14:54:13.161Z,17.00
2023-02-14T14:56:57.160Z,17.40
2023-02-14T14:59:40.527Z,17.40
2023-02-14T15:02:26.934Z,17.20
2023-02-14T15:04:57.880Z,16.80
2023-02-14T15:07:36.411Z,16.80
2023-02-14T15:10:31.280Z,16.70
2023-02-14T15:13:20.725Z,17.20
2023-02-14T15:15:52.020Z,16.60
2023-02-14T15:18:23.167Z,17.10
2023-02-14T15:20:54.412Z,16.80
2023-02-14T15:23:25.608Z,16.80
2023-02-14T15:25:56.889Z,17.10
2023-02-14T15:28:33.521Z,16.60
2023-02-14T15:31:07.247Z,16.40
2023-02-14T15:33:39.483Z,16.70
2023-02-14T15:36:20.100Z,16.10
2023-02-14T15:38:51.396Z,16.10
2023-02-14T15:41:24.391Z,16.40
2023-02-14T15:43:57.373Z,16.50
2023-02-14T15:46:37.334Z,16.30
2023-02-14T15:49:20.800Z,16.20
2023-02-14T15:51:51.853Z,15.90
2023-02-14T15:54:37.380Z,16.10
2023-02-14T15:57:26.335Z,16.00
2023-02-14T15:59:57.259Z,15.80
2023-02-14T16:02:33.312Z,15.90
2023-02-14T16:05:18.841Z,15.80
2023-02-14T16:07:56.545Z,15.80
2023-02-14T16:10:37.559Z,16.00
2023-02-14T16:13:14.840Z,16.00
2023-02-14T16:16:09.930Z,16.00
2023-02-14T16:18:53.528Z,15.60
2023-02-14T16:21:34.491Z,15.60
2023-02-14T16:24:10.992Z,15.40
2023-02-14T16:26:44.649Z,15.10
2023-02-14T16:29:18.020Z,15.10
2023-02-14T16:32:14.472Z,15.10
2023-02-14T16:34:49.264Z,15.20
2023-02-14T16:37:33.135Z,14.90
2023-02-14T16:40:13.901Z,14.90
2023-02-14T16:42:45.182Z,14.70
2023-02-14T16:45:18.501Z,14.70
2023-02-14T16:47:51.232Z,14.70
2023-02-14T16:50:22.823Z,14.50
2023-02-14T16:52:55.937Z,14.50
2023-02-14T16:55:30.027Z,14.60
2023-02-14T16:58:01.625Z,14.60
2023-02-14T17:00:32.543Z,14.30
2023-02-14T17:03:06.272Z,14.00
2023-02-14T17:05:38.913Z,14.10
2023-02-14T17:08:12.431Z,14.10
2023-02-14T17:10:44.897Z,14.10
2023-02-14T17:13:23.600Z,13.80
2023-02-14T17:15:54.961Z,13.60
2023-02-14T17:18:26.123Z,13.30
2023-02-14T17:20:59.263Z,13.30
2023-02-14T17:23:30.615Z,13.30
2023-02-14T17:26:01.651Z,13.20
2023-02-14T17:28:32.576Z,13.20
2023-02-14T17:31:04.463Z,13.10
2023-02-14T17:33:35.733Z,12.80
2023-02-14T17:36:13.609Z,12.90
2023-02-14T17:38:44.961Z,12.90
2023-02-14T17:41:23.115Z,12.90
2023-02-14T17:43:54.937Z,12.70
2023-02-14T17:46:30.770Z,12.70
2023-02-14T17:49:02.680Z,12.30
2023-02-14T17:51:34.278Z,12.60
2023-02-14T17:54:05.400Z,12.40
2023-02-14T17:56:36.287Z,12.20
2023-02-14T17:59:07.161Z,12.20
2023-02-14T18:01:38.087Z,12.00
2023-02-14T18:04:09.357Z,11.90
2023-02-14T18:06:40.396Z,12.10
2023-02-14T18:09:11.238Z,12.30
2023-02-14T18:11:42.307Z,12.30
2023-02-14T18:14:13.161Z,12.20
2023-02-14T18:16:45.978Z,12.30
2023-02-14T18:19:17.574Z,11.90
2023-02-14T18:21:48.587Z,12.10
2023-02-14T18:24:20.083Z,12.00
2023-02-14T18:26:51.169Z,11.60
2023-02-14T18:29:22.780Z,11.40
2023-02-14T18:31:53.760Z,11.30
2023-02-14T18:34:24.865Z,11.50
2023-02-14T18:36:55.733Z,11.30
2023-02-14T18:39:26.958Z,11.10
2023-02-14T18:42:00.002Z,11.10
2023-02-14T18:44:31.542Z,11.20
2023-02-14T18:47:02.869Z,11.20
2023-02-14T18:49:33.861Z,10.90
2023-02-14T18:52:05.103Z,11.00
2023-02-14T18:54:35.991Z,10.90
2023-02-14T18:57:08.227Z,10.90
2023-02-14T18:59:39.315Z,10.90
2023-02-14T19:02:10.249Z,10.60
2023-02-14T19:04:41.100Z,10.50
2023-02-14T19:07:12.049Z,10.20
2023-02-14T19:09:43.249Z,10.00
2023-02-14T19:12:14.197Z,10.30
2023-02-14T19:14:45.146Z,12.20
2023-02-14T19:17:17.354Z,11.20
2023-02-14T19:19:48.538Z,11.00
2023-02-14T19:22:20.438Z,10.90
2023-02-14T19:24:53.799Z,10.40
2023-02-14T19:27:24.785Z,10.50
2023-02-14T19:29:55.657Z,10.00
2023-02-14T19:32:28.067Z,9.90
2023-02-14T19:34:59.008Z,10.10
2023-02-14T19:37:29.987Z,9.90
2023-02-14T19:40:01.115Z,10.00
2023-02-14T19:42:32.177Z,10.10
2023-02-14T19:45:03.733Z,10.10
2023-02-14T19:47:46.531Z,10.10
2023-02-14T19:50:20.349Z,9.80
2023-02-14T19:52:52.501Z,9.60
2023-02-14T19:55:23.786Z,11.50
2023-02-14T19:57:55.280Z,12.60
2023-02-14T20:00:26.151Z,11.20
2023-02-14T20:03:00.626Z,10.50
2023-02-14T20:05:31.978Z,10.20
2023-02-14T20:08:03.065Z,10.00
2023-02-14T20:10:34.097Z,9.80
2023-02-14T20:13:05.135Z,9.70
2023-02-14T20:15:37.555Z,9.80
2023-02-14T20:18:08.515Z,9.70
2023-02-14T20:21:02.287Z,9.50
2023-02-14T20:23:33.913Z,9.40
2023-02-14T20:26:04.790Z,9.40
2023-02-14T20:28:35.748Z,9.10
2023-02-14T20:31:13.692Z,9.10
2023-02-14T20:33:45.893Z,9.30
2023-02-14T20:36:17.267Z,9.20
2023-02-14T20:38:48.413Z,9.30
2023-02-14T20:41:19.385Z,9.10
2023-02-14T20:43:50.384Z,9.50
2023-02-14T20:46:23.054Z,8.90
2023-02-14T20:48:54.272Z,9.10
2023-02-14T20:51:26.540Z,9.10
2023-02-14T20:53:57.662Z,8.60
2023-02-14T20:56:29.072Z,9.10
2023-02-14T20:59:03.452Z,9.10
2023-02-14T21:01:34.727Z,8.90
2023-02-14T21:04:06.007Z,8.50
2023-02-14T21:06:39.981Z,8.70
2023-02-14T21:09:11.081Z,12.90
2023-02-14T21:11:42.298Z,12.50
2023-02-14T21:14:13.817Z,10.90
2023-02-14T21:16:47.410Z,10.10
2023-02-14T21:19:18.654Z,9.80
2023-02-14T21:21:49.657Z,9.50
2023-02-14T21:24:20.538Z,9.20
2023-02-14T21:26:51.569Z,9.20
2023-02-14T21:29:22.533Z,9.00
2023-02-14T21:31:53.951Z,8.80
2023-02-14T21:34:27.049Z,8.90
2023-02-14T21:36:58.143Z,9.10
2023-02-14T21:39:30.994Z,9.10
2023-02-14T21:42:02.439Z,9.10
2023-02-14T21:44:53.191Z,9.10
2023-02-14T21:47:24.478Z,8.90
2023-02-14T21:50:14.101Z,8.50
2023-02-14T21:52:45.059Z,9.00
2023-02-14T21:55:16.116Z,8.80
2023-02-14T21:57:47.158Z,8.60
2023-02-14T22:00:18.617Z,8.90
2023-02-14T22:02:49.814Z,8.90
2023-02-14T22:05:20.747Z,8.70
2023-02-14T22:07:51.775Z,8.60
2023-02-14T22:10:22.760Z,8.80
2023-02-14T22:12:53.862Z,8.20
2023-02-14T22:15:24.862Z,8.70
2023-02-14T22:17:55.737Z,8.50
2023-02-14T22:20:26.611Z,8.30
2023-02-14T22:22:57.545Z,8.30
2023-02-14T22:25:28.677Z,8.20
2023-02-14T22:28:00.247Z,8.10
2023-02-14T22:30:31.096Z,8.00
2023-02-14T22:33:02.060Z,8.10
2023-02-14T22:35:33.322Z,8.20
2023-02-14T22:38:04.270Z,8.10
2023-02-14T22:40:35.659Z,8.00
2023-02-14T22:43:06.565Z,7.90
2023-02-14T22:45:37.649Z,7.80
2023-02-14T22:48:08.953Z,7.70
2023-02-14T22:50:39.999Z,7.80
2023-02-14T22:53:10.950Z,7.60
2023-02-14T22:55:42.177Z,7.90
2023-02-14T22:58:13.110Z,7.80
2023-02-14T23:00:44.252Z,7.80
2023-02-14T23:03:15.186Z,7.90
2023-02-14T23:05:46.118Z,7.80
2023-02-14T23:08:17.482Z,7.80
2023-02-14T23:10:48.609Z,7.70
2023-02-14T23:13:38.185Z,7.80
2023-02-14T23:16:28.538Z,7.50
2023-02-14T23:19:17.900Z,7.50
2023-02-14T23:21:54.568Z,7.60
2023-02-14T23:24:25.558Z,7.90
2023-02-14T23:26:56.606Z,7.90
2023-02-14T23:29:27.986Z,7.70
2023-02-14T23:31:58.969Z,7.90
2023-02-14T23:34:32.322Z,7.60
2023-02-14T23:37:03.452Z,7.50
2023-02-14T23:39:36.713Z,7.50
2023-02-14T23:42:14.610Z,7.40
2023-02-14T23:44:46.745Z,7.80
2023-02-14T23:47:18.895Z,8.00
2023-02-14T23:49:49.763Z,7.70
2023-02-14T23:52:20.634Z,7.50
2023-02-14T23:54:51.475Z,7.70
2023-02-14T23:57:22.380Z,7.70
2023-02-14T23:59:53.254Z,7.50
